Time;durP1;ratioP1;P1;durP2;ratioP2;P2;SDS_P1;SDS_P2;PMS_P1;PMS_P2;Temp;Humidity;BMP_temperature;BMP_pressure;BME280_temperature;BME280_humidity;BME280_pressure;Samples;Min_cycle;Max_cycle;Signal;HPM_P1;HPM_P2
2023/05/05 00:01:10;;;;;;;22.83;10.27;;;;;;;16.69;73.46;99310.78;4812667;29;20624;-90
2023/05/05 00:04:21;;;;;;;;;;;;;;;;;;;;;
2023/05/05 00:07:13;;;;;;;;;;;;;;;;;;;;;
2023/05/05 00:09:58;;;;;;;23.07;11.07;;;;;;;16.45;75.50;99301.03;4826355;29;20188;-90
2023/05/05 00:12:28;;;;;;;24.73;11.67;;;;;;;16.53;75.73;99290.72;4811445;29;20613;-90
2023/05/05 00:15:05;;;;;;;;;;;;;;;;;;;;;
2023/05/05 00:17:33;;;;;;;25.23;12.27;;;;;;;16.71;75.50;99288.53;4827059;29;20167;-89
2023/05/05 00:20:00;;;;;;;25.70;12.20;;;;;;;16.82;75.27;99288.56;4826676;29;20184;-89
2023/05/05 00:22:27;;;;;;;22.90;10.40;;;;;;;16.71;75.11;99287.69;4825834;29;20213;-89
2023/05/05 00:24:57;;;;;;;25.77;10.67;;;;;;;16.57;75.84;99297.50;4825808;29;20225;-90
2023/05/05 00:27:32;;;;;;;28.40;12.33;;;;;;;16.62;76.33;99281.25;4826033;29;20193;-90
2023/05/05 00:29:59;;;;;;;26.13;11.67;;;;;;;16.50;76.43;99285.66;4825964;29;20180;-90
2023/05/05 00:32:25;;;;;;;25.23;11.50;;;;;;;16.55;76.59;99286.19;4824976;29;20193;-89
2023/05/05 00:34:51;;;;;;;26.80;11.23;;;;;;;16.62;76.20;99283.06;4825929;29;20267;-89
2023/05/05 00:37:17;;;;;;;24.93;11.57;;;;;;;16.52;76.62;99277.59;4826095;29;20194;-90
2023/05/05 00:39:43;;;;;;;20.50;10.57;;;;;;;16.65;76.46;99283.69;4825810;29;20677;-89
2023/05/05 00:42:10;;;;;;;22.33;9.70;;;;;;;16.74;76.06;99287.47;4824287;29;20192;-89
2023/05/05 00:44:41;;;;;;;21.03;10.27;;;;;;;16.82;75.50;99279.78;4827813;29;20224;-89
2023/05/05 00:47:15;;;;;;;19.37;10.13;;;;;;;16.90;75.21;99288.00;4844215;29;20189;-90
2023/05/05 00:49:55;;;;;;;23.20;10.00;;;;;;;16.85;75.66;99290.16;4844208;29;20188;-90
2023/05/05 00:52:27;;;;;;;26.63;9.80;;;;;;;16.94;75.51;99292.94;4843949;29;20311;-89
2023/05/05 00:54:59;;;;;;;21.17;9.70;;;;;;;16.93;75.57;99290.38;4843601;29;20188;-90
2023/05/05 00:57:46;;;;;;;20.43;9.30;;;;;;;17.05;75.32;99290.31;4842856;29;20287;-89
2023/05/05 01:00:35;;;;;;;20.97;10.60;;;;;;;17.12;75.26;99294.16;4843735;29;20214;-89
2023/05/05 01:03:04;;;;;;;18.47;9.40;;;;;;;17.16;74.56;99294.78;4843214;29;20200;-90
2023/05/05 01:06:00;;;;;;;23.87;10.17;;;;;;;17.16;73.64;99286.84;4843478;29;20208;-90
2023/05/05 01:09:06;;;;;;;;;;;;;;;;;;;;;
2023/05/05 01:12:44;;;;;;;23.43;10.50;;;;;;;17.02;74.00;99287.03;4812138;29;20640;-89
2023/05/05 01:15:45;;;;;;;25.80;10.17;;;;;;;17.05;74.07;99284.16;4842500;29;20207;-90
2023/05/05 01:18:27;;;;;;;21.27;9.87;;;;;;;17.12;73.46;99288.03;4842147;29;20199;-90
2023/05/05 01:21:14;;;;;;;19.90;10.83;;;;;;;17.11;73.66;99283.69;4843660;29;20182;-90
2023/05/05 01:24:17;;;;;;;22.97;10.33;;;;;;;17.08;73.88;99281.28;4827530;29;20176;-90
2023/05/05 01:26:59;;;;;;;24.20;10.07;;;;;;;17.10;73.74;99280.22;4843260;29;20206;-90
2023/05/05 01:30:03;;;;;;;24.17;10.13;;;;;;;17.14;73.74;99283.44;4827233;29;20222;-89
2023/05/05 01:32:50;;;;;;;21.40;10.17;;;;;;;17.16;73.58;99273.59;4843393;29;20679;-90
2023/05/05 01:35:31;;;;;;;22.10;8.93;;;;;;;17.22;73.52;99272.28;4843436;29;20177;-89
2023/05/05 01:38:20;;;;;;;19.40;7.70;;;;;;;17.30;73.28;99276.00;4827859;29;20208;-90
2023/05/05 01:41:10;;;;;;;;;;;;;;;;;;;;;
2023/05/05 01:43:52;;;;;;;19.13;9.20;;;;;;;17.42;72.25;99269.75;4824760;29;20266;-90
2023/05/05 01:46:33;;;;;;;20.07;8.80;;;;;;;17.48;71.40;99263.97;4824741;29;20289;-89
2023/05/05 01:49:14;;;;;;;;;;;;;;;;;;;;;
2023/05/05 01:51:45;;;;;;;15.97;8.07;;;;;;;17.34;71.91;99264.22;4825371;29;20180;-90
2023/05/05 01:54:18;;;;;;;22.10;9.03;;;;;;;17.40;71.72;99261.06;4837557;29;20232;-89
2023/05/05 01:56:45;;;;;;;19.03;8.50;;;;;;;17.36;71.97;99264.94;4826793;29;20188;-90
2023/05/05 01:59:12;;;;;;;19.70;8.40;;;;;;;17.33;72.39;99259.88;4842092;29;20195;-89
2023/05/05 02:01:43;;;;;;;21.87;9.43;;;;;;;17.39;72.12;99251.44;4842753;29;20184;-90
2023/05/05 02:04:16;;;;;;;18.20;8.97;;;;;;;17.38;72.14;99248.91;4843233;29;20165;-89
2023/05/05 02:06:56;;;;;;;;;;;;;;;;;;;;;
2023/05/05 02:09:48;;;;;;;22.27;10.00;;;;;;;17.30;72.38;99251.31;4843702;29;20167;-90
2023/05/05 02:15:34;;;;;;;21.47;11.13;;;;;;;17.16;73.53;99237.31;4832728;29;20711;-90
2023/05/05 02:18:17;;;;;;;;;;;;;;;;;;;;;
2023/05/05 02:21:16;;;;;;;;;;;;;;;;;;;;;
2023/05/05 02:24:35;;;;;;;;;;;;;;;;;;;;;
2023/05/05 02:27:38;;;;;;;;;;;;;;;;;;;;;
2023/05/05 02:30:31;;;;;;;;;;;;;;;;;;;;;
2023/05/05 02:36:41;;;;;;;26.47;11.40;;;;;;;17.11;73.65;99238.69;4838790;29;20201;-90
2023/05/05 02:39:50;;;;;;;;;;;;;;;;;;;;;
2023/05/05 02:42:52;;;;;;;23.47;10.93;;;;;;;17.16;73.70;99236.50;4841463;29;20226;-90
2023/05/05 02:45:38;;;;;;;23.80;10.30;;;;;;;16.99;74.58;99242.25;4844462;29;20259;-91
2023/05/05 02:48:58;;;;;;;;;;;;;;;;;;;;;
2023/05/05 02:51:56;;;;;;;;;;;;;;;;;;;;;
2023/05/05 02:54:23;;;;;;;26.27;12.13;;;;;;;16.91;74.94;99234.06;4826255;29;20257;-90
2023/05/05 02:57:09;;;;;;;;;;;;;;;;;;;;;
2023/05/05 03:00:25;;;;;;;;;;;;;;;;;;;;;
2023/05/05 03:03:15;;;;;;;23.37;10.73;;;;;;;17.04;74.34;99232.16;4824284;29;20197;-90
2023/05/05 03:05:50;;;;;;;25.73;11.77;;;;;;;17.10;74.34;99237.81;4826589;29;20223;-89
2023/05/05 03:08:27;;;;;;;25.83;11.77;;;;;;;17.18;73.87;99239.88;4833004;29;20198;-89
2023/05/05 03:11:16;;;;;;;20.43;10.63;;;;;;;17.21;73.98;99247.59;4846343;29;20173;-89
2023/05/05 03:13:49;;;;;;;24.17;11.23;;;;;;;17.25;74.05;99238.44;4845969;29;20230;-90
2023/05/05 03:16:17;;;;;;;21.63;10.63;;;;;;;17.31;73.88;99245.91;4830113;29;20228;-90
2023/05/05 03:18:47;;;;;;;21.10;10.10;;;;;;;17.36;73.98;99251.69;4845574;29;20196;-90
2023/05/05 03:21:13;;;;;;;21.40;10.40;;;;;;;17.39;73.61;99243.50;4841502;29;20190;-89
2023/05/05 03:23:40;;;;;;;19.27;9.80;;;;;;;17.43;73.35;99242.28;4827007;29;20723;-90
2023/05/05 03:26:08;;;;;;;22.60;10.87;;;;;;;17.47;73.32;99250.84;4827251;29;20233;-90
2023/05/05 03:28:35;;;;;;;27.10;11.67;;;;;;;17.46;72.83;99257.09;4811281;29;20200;-89
2023/05/05 03:31:02;;;;;;;21.67;10.40;;;;;;;17.44;73.02;99259.03;4827731;29;20269;-89
2023/05/05 03:33:28;;;;;;;28.87;11.07;;;;;;;17.40;72.82;99254.94;4827439;29;20548;-89
2023/05/05 03:35:55;;;;;;;22.20;10.23;;;;;;;17.40;73.00;99260.25;4827177;29;20192;-90
2023/05/05 03:38:22;;;;;;;22.17;11.10;;;;;;;17.33;73.14;99265.16;4826679;29;20194;-91
2023/05/05 03:40:49;;;;;;;23.57;12.43;;;;;;;17.29;73.70;99270.84;4821757;29;20578;-90
2023/05/05 03:43:19;;;;;;;22.50;11.10;;;;;;;17.23;73.63;99274.78;4845441;29;20189;-90
2023/05/05 03:45:49;;;;;;;32.30;12.13;;;;;;;17.31;73.44;99263.59;4828944;29;20216;-91
2023/05/05 03:48:27;;;;;;;26.10;12.13;;;;;;;17.21;73.76;99266.13;4829232;29;20196;-90
2023/05/05 03:50:53;;;;;;;22.27;11.37;;;;;;;17.24;73.86;99273.84;4837662;29;20219;-90
2023/05/05 03:53:25;;;;;;;22.83;10.40;;;;;;;17.25;73.73;99277.31;4810687;29;20312;-90
2023/05/05 03:55:51;;;;;;;27.83;12.40;;;;;;;17.17;74.13;99276.13;4809754;29;20193;-89
2023/05/05 03:58:23;;;;;;;28.80;13.20;;;;;;;17.15;74.36;99277.19;4836197;29;20229;-90
2023/05/05 04:00:51;;;;;;;26.83;12.70;;;;;;;17.09;74.47;99280.31;4845235;29;20242;-90
2023/05/05 04:03:28;;;;;;;;;;;;;;;;;;;;;
2023/05/05 04:06:15;;;;;;;;;;;;;;;;;;;;;
2023/05/05 04:08:45;;;;;;;24.97;11.80;;;;;;;16.88;75.93;99277.50;4828152;29;20201;-90
2023/05/05 04:11:17;;;;;;;24.40;10.37;;;;;;;16.98;75.70;99286.41;4825507;29;20189;-90
2023/05/05 04:13:49;;;;;;;28.30;12.93;;;;;;;17.03;75.26;99284.25;4826526;29;20279;-90
2023/05/05 04:16:27;;;;;;;25.90;12.47;;;;;;;17.11;75.09;99291.66;4810263;29;20269;-90
2023/05/05 04:19:00;;;;;;;27.77;13.30;;;;;;;17.14;75.30;99283.44;4810333;29;20189;-91
2023/05/05 04:21:32;;;;;;;24.83;12.03;;;;;;;17.07;74.92;99282.22;4825259;29;20265;-91
2023/05/05 04:24:05;;;;;;;26.50;12.30;;;;;;;17.08;75.21;99286.59;4838686;29;20193;-90
2023/05/05 04:26:52;;;;;;;28.83;13.63;;;;;;;17.07;75.22;99280.44;4825334;29;20234;-91
2023/05/05 04:29:42;;;;;;;29.50;13.00;;;;;;;17.13;75.40;99277.31;4829132;29;20189;-90
2023/05/05 04:32:37;;;;;;;;;;;;;;;;;;;;;
2023/05/05 04:35:38;;;;;;;;;;;;;;;;;;;;;
2023/05/05 04:38:19;;;;;;;;;;;;;;;;;;;;;
2023/05/05 04:40:47;;;;;;;27.27;12.47;;;;;;;16.99;76.05;99277.53;4824878;29;20213;-90
2023/05/05 04:43:16;;;;;;;27.97;12.83;;;;;;;17.06;76.32;99264.66;4819113;29;20254;-89
2023/05/05 04:46:04;;;;;;;34.73;13.80;;;;;;;17.08;76.54;99276.84;4813727;29;20648;-91
2023/05/05 04:48:29;;;;;;;33.80;14.77;;;;;;;17.18;75.83;99282.25;4805693;29;20237;-90
2023/05/05 04:51:55;;;;;;;;;;;;;;;;;;;;;
2023/05/05 04:54:48;;;;;;;;;;;;;;;;;;;;;
2023/05/05 04:57:18;;;;;;;31.03;15.20;;;;;;;17.13;76.28;99276.47;4842390;29;20191;-90
2023/05/05 05:00:03;;;;;;;34.03;14.30;;;;;;;17.16;76.45;99285.00;4841983;29;20211;-91
2023/05/05 05:02:38;;;;;;;33.87;16.13;;;;;;;17.34;75.59;99293.38;4826659;29;20201;-90
2023/05/05 05:05:11;;;;;;;30.53;14.07;;;;;;;17.32;75.77;99279.38;4842623;29;20283;-91
2023/05/05 05:07:57;;;;;;;35.30;15.47;;;;;;;17.38;76.10;99283.34;4832929;29;20284;-90
2023/05/05 05:10:34;;;;;;;34.00;14.67;;;;;;;17.45;75.72;99274.78;4830607;29;20193;-90
2023/05/05 05:13:00;;;;;;;29.70;12.83;;;;;;;17.54;75.65;99287.38;4828318;29;20177;-90
2023/05/05 05:15:46;;;;;;;29.20;13.97;;;;;;;17.63;75.60;99285.81;4814838;29;20208;-90
2023/05/05 05:18:20;;;;;;;32.70;13.77;;;;;;;17.73;75.42;99289.41;4823729;29;20585;-91
2023/05/05 05:24:52;;;;;;;;;;;;;;;;;;;;;
2023/05/05 05:41:25;;;;;;;25.17;11.90;;;;;;;17.96;73.28;99322.06;4824384;29;20205;-89
2023/05/05 05:43:51;;;;;;;25.87;11.43;;;;;;;17.78;73.69;99319.91;4823505;29;20301;-91
2023/05/05 05:47:20;;;;;;;21.93;11.03;;;;;;;17.96;71.87;99325.56;4824094;29;20215;-90
2023/05/05 05:54:16;;;;;;;;;;;;;;;;;;;;;
2023/05/05 06:01:17;;;;;;;;;;;;;;;;;;;;;
2023/05/05 06:04:35;;;;;;;;;;;;;;;;;;;;;
2023/05/05 06:18:50;;;;;;;;;;;;;;;;;;;;;
2023/05/05 06:32:46;;;;;;;;;;;;;;;;;;;;;
2023/05/05 06:35:54;;;;;;;;;;;;;;;;;;;;;
2023/05/05 06:38:51;;;;;;;14.87;6.63;;;;;;;19.33;66.74;99293.78;4693834;30;20205;-92
2023/05/05 06:49:01;;;;;;;7.50;3.83;;;;;;;19.82;60.90;99295.69;4715869;30;20258;-92
2023/05/05 07:38:24;;;;;;;7.60;3.70;;;;;;;20.39;58.22;99308.34;4596144;31;20369;-90
2023/05/05 09:39:21;;;;;;;6.77;3.17;;;;;;;23.27;47.02;99276.69;4748125;30;20223;-89
2023/05/05 12:16:46;;;;;;;;;;;;;;;;;;;;;
2023/05/05 13:00:21;;;;;;;;;;;;;;;;;;;;;
2023/05/05 13:10:11;;;;;;;2.00;1.07;;;;;;;25.17;42.15;99086.34;4565637;31;20238;-90
2023/05/05 14:30:36;;;;;;;;;;;;;;;;;;;;;
2023/05/05 15:09:57;;;;;;;2.93;1.37;;;;;;;22.08;48.47;99025.34;4613563;31;20213;-90
